Skip Navigation LinksHome page > Weather > Current weather Skip Navigation Links

Current Weather

Cherry Capital, Traverse City, Mich.

For information only: do not use for flight planning or navigation.
Latest weather
Observation time Monday, June 21, 2021 8:53 PM EDT
Local time Monday, June 21, 2021 9:18 PM EDT
Flight conditions Visual Meteorological Conditions
Winds
Wind direction North (350°)
Wind speed 7 mph
Visibility 10 mi.
Sky condition
Ceiling unlimited
Cloud layer few clouds 2,800 ft.
Cloud layer few clouds 25,000 ft.
Temperature 55°F
Dewpoint 37°F
Altimeter 29.84 in.Hg
Derived measurements
Relative humidity 51%
Density altitude 568 ft.
Sea-level pressure 29.85 in.Hg
Remarks
Automated weather observing station with precipitation discriminator.
METAR KTVC 220053Z 35006KT 10SM FEW028 FEW250 13/03 A2984 RMK AO2 SLP107 T01280028

Settings

Location code

InnerDrive.Weather 4.0.6770.0 Release CLR 4.0.30319.42000
Copyright ©2018 Inner Drive Technology. All rights reserved. Portions Copyright ©1986-2018 David Braverman.

Find weather

Site navigation


Skip Navigation Links

Place info

Page info

PayPal - The safer, easier way to pay online!

Return home.

Copyright ©2021 Inner Drive Technology. Purveyors of fine, hand-crafted computer software. Page printed 2021-06-22T01:18:47 UTC.